Time;durP1;ratioP1;P1;durP2;ratioP2;P2;SDS_P1;SDS_P2;PMS_P1;PMS_P2;Temp;Humidity;BMP_temperature;BMP_pressure;BME280_temperature;BME280_humidity;BME280_pressure;Samples;Min_cycle;Max_cycle;Signal;HPM_P1;HPM_P2
2023/09/15 00:02:19;;;;;;;;;;;;;;;16.44;100.00;101894.88;5232271;28;19948;-77
2023/09/15 00:04:51;;;;;;;;;;;;;;;16.39;100.00;101892.69;5230633;28;20390;-77
2023/09/15 00:07:22;;;;;;;;;;;;;;;16.38;100.00;101893.66;5230145;28;20362;-77
2023/09/15 00:09:53;;;;;;;;;;;;;;;16.35;100.00;101893.94;5228598;28;19944;-77
2023/09/15 00:12:24;;;;;;;;;;;;;;;16.32;100.00;101883.63;5232772;28;19927;-77
2023/09/15 00:14:56;;;;;;;;;;;;;;;16.30;100.00;101885.59;5229172;28;20317;-77
2023/09/15 00:17:27;;;;;;;;;;;;;;;16.26;100.00;101894.81;5232479;28;19981;-77
2023/09/15 00:19:59;;;;;;;;;;;;;;;16.23;100.00;101885.31;5230978;28;20400;-77
2023/09/15 00:22:31;;;;;;;;;;;;;;;16.20;100.00;101882.13;5232848;28;20120;-77
2023/09/15 00:25:03;;;;;;;;;;;;;;;16.21;100.00;101887.31;5230271;28;20632;-77
2023/09/15 00:27:34;;;;;;;;;;;;;;;16.18;100.00;101882.28;5214288;28;20381;-77
2023/09/15 00:30:05;;;;;;;;;;;;;;;16.15;100.00;101882.56;5231548;28;19917;-77
2023/09/15 00:32:37;;;;;;;;;;;;;;;16.13;100.00;101879.22;5233148;28;19919;-77
2023/09/15 00:35:08;;;;;;;;;;;;;;;16.13;100.00;101879.22;5230473;28;20263;-77
2023/09/15 00:37:40;;;;;;;;;;;;;;;16.11;100.00;101875.06;5233078;28;19963;-77
2023/09/15 00:40:12;;;;;;;;;;;;;;;16.09;100.00;101874.34;5230955;28;19916;-77
2023/09/15 00:42:44;;;;;;;;;;;;;;;16.07;100.00;101874.50;5227590;28;20355;-77
2023/09/15 00:45:17;;;;;;;;;;;;;;;16.02;100.00;101864.38;5231839;28;19918;-77
2023/09/15 00:47:53;;;;;;;;;;;;;;;16.00;100.00;101876.03;5229517;28;20254;-77
2023/09/15 00:50:31;;;;;;;;;;;;;;;15.95;100.00;101873.81;5222253;28;20326;-77
2023/09/15 00:53:04;;;;;;;;;;;;;;;15.94;100.00;101872.13;5232808;28;19917;-77
2023/09/15 00:55:37;;;;;;;;;;;;;;;15.92;100.00;101867.97;5232898;28;19923;-77
2023/09/15 00:58:11;;;;;;;;;;;;;;;15.90;100.00;101870.75;5228095;28;20650;-77
2023/09/15 01:00:43;;;;;;;;;;;;;;;15.88;100.00;101862.13;5229579;28;19982;-77
2023/09/15 01:03:17;;;;;;;;;;;;;;;15.84;100.00;101866.03;5227423;28;19913;-77
2023/09/15 01:05:49;;;;;;;;;;;;;;;15.80;100.00;101868.13;5228611;28;19923;-77
2023/09/15 01:08:20;;;;;;;;;;;;;;;15.77;100.00;101862.28;5231842;28;19920;-77
2023/09/15 01:10:51;;;;;;;;;;;;;;;15.77;100.00;101863.13;5211424;28;19968;-77
2023/09/15 01:13:22;;;;;;;;;;;;;;;15.74;100.00;101865.19;5228430;28;19917;-77
2023/09/15 01:15:54;;;;;;;;;;;;;;;15.73;100.00;101853.78;5228120;28;19923;-77
2023/09/15 01:18:48;;;;;;;;;;;;;;;15.69;100.00;101857.69;5230370;28;19975;-77
2023/09/15 01:21:41;;;;;;;;;;;;;;;15.64;100.00;101853.75;5217235;28;19917;-77
2023/09/15 01:24:18;;;;;;;;;;;;;;;15.60;100.00;101850.56;5227513;28;19913;-77
2023/09/15 01:26:55;;;;;;;;;;;;;;;15.57;100.00;101851.69;5231212;28;19920;-77
2023/09/15 01:29:38;;;;;;;;;;;;;;;15.54;100.00;101851.13;5230848;28;20003;-77
2023/09/15 01:32:12;;;;;;;;;;;;;;;15.50;100.00;101844.44;5228989;28;19921;-77
2023/09/15 01:34:48;;;;;;;;;;;;;;;15.48;100.00;101847.22;5231004;28;19917;-77
2023/09/15 01:37:19;;;;;;;;;;;;;;;15.45;100.00;101839.56;5214279;28;20024;-77
2023/09/15 01:39:52;;;;;;;;;;;;;;;15.42;100.00;101837.22;5229236;28;20007;-77
2023/09/15 01:42:23;;;;;;;;;;;;;;;15.39;100.00;101832.19;5230907;28;19917;-77
2023/09/15 01:44:55;;;;;;;;;;;;;;;15.35;100.00;101836.09;5230789;28;19924;-77
2023/09/15 01:47:27;;;;;;;;;;;;;;;15.35;100.00;101837.91;5225707;28;19939;-77
2023/09/15 01:49:59;;;;;;;;;;;;;;;15.32;100.00;101831.91;5229126;28;19939;-77
2023/09/15 01:52:30;;;;;;;;;;;;;;;15.32;100.00;101831.06;5229851;28;20282;-77
2023/09/15 01:55:03;;;;;;;;;;;;;;;15.30;100.00;101828.59;5230425;28;20039;-77
2023/09/15 01:57:34;;;;;;;;;;;;;;;15.28;100.00;101829.69;5228669;28;20007;-77
2023/09/15 02:00:06;;;;;;;;;;;;;;;15.25;100.00;101824.66;5231183;28;20345;-77
2023/09/15 02:02:38;;;;;;;;;;;;;;;15.23;100.00;101831.91;5227733;28;19913;-77
2023/09/15 02:05:14;;;;;;;;;;;;;;;15.21;100.00;101832.03;5211894;28;20367;-77
2023/09/15 02:07:45;;;;;;;;;;;;;;;15.19;100.00;101830.47;5224329;28;20018;-77
2023/09/15 02:10:16;;;;;;;;;;;;;;;15.18;100.00;101834.09;5229902;28;20398;-77
2023/09/15 02:12:48;;;;;;;;;;;;;;;15.15;100.00;101829.91;5228461;28;19925;-77
2023/09/15 02:15:19;;;;;;;;;;;;;;;15.12;100.00;101830.22;5227600;28;19913;-77
2023/09/15 02:17:53;;;;;;;;;;;;;;;15.12;100.00;101826.75;5228662;28;19944;-77
2023/09/15 02:20:25;;;;;;;;;;;;;;;15.09;100.00;101831.31;5229079;28;20007;-77
2023/09/15 02:22:57;;;;;;;;;;;;;;;15.05;100.00;101834.34;5221118;28;19917;-77
2023/09/15 02:25:28;;;;;;;;;;;;;;;14.99;100.00;101832.25;5231002;28;19928;-77
2023/09/15 02:27:59;;;;;;;;;;;;;;;14.95;100.00;101826.41;5228059;28;19921;-77
2023/09/15 02:30:30;;;;;;;;;;;;;;;14.91;100.00;101827.63;5228441;28;20476;-77
2023/09/15 02:33:02;;;;;;;;;;;;;;;14.89;100.00;101818.19;5229621;28;19976;-77
2023/09/15 02:35:33;;;;;;;;;;;;;;;14.84;100.00;101816.78;5229683;28;19921;-77
2023/09/15 02:38:04;;;;;;;;;;;;;;;14.84;100.00;101816.78;5227092;28;19970;-77
2023/09/15 02:40:36;;;;;;;;;;;;;;;14.79;100.00;101813.72;5226433;28;20818;-77
2023/09/15 02:43:09;;;;;;;;;;;;;;;14.76;100.00;101816.63;5228058;28;19917;-77
2023/09/15 02:45:41;;;;;;;;;;;;;;;14.72;100.00;101811.75;5223610;28;19916;-77
2023/09/15 02:48:12;;;;;;;;;;;;;;;14.70;100.00;101814.53;5212416;28;19909;-77
2023/09/15 02:50:43;;;;;;;;;;;;;;;14.69;100.00;101815.47;5228436;28;19940;-77
2023/09/15 02:53:14;;;;;;;;;;;;;;;14.67;100.00;101806.88;5230486;28;19913;-76
2023/09/15 02:55:55;;;;;;;;;;;;;;;14.66;100.00;101812.28;5225840;28;19920;-77
2023/09/15 02:58:27;;;;;;;;;;;;;;;14.64;100.00;101815.06;5228351;28;19928;-77
2023/09/15 03:00:58;;;;;;;;;;;;;;;14.63;100.00;101816.03;5226125;28;19926;-77
2023/09/15 03:03:30;;;;;;;;;;;;;;;14.60;100.00;101811.84;5229712;28;19917;-77
2023/09/15 03:06:02;;;;;;;;;;;;;;;14.57;100.00;101804.19;5226434;28;20362;-77
2023/09/15 03:08:34;;;;;;;;;;;;;;;14.54;100.00;101808.91;5229779;28;20004;-77
2023/09/15 03:11:11;;;;;;;;;;;;;;;14.51;100.00;101803.91;5226138;28;20016;-77
2023/09/15 03:13:42;;;;;;;;;;;;;;;14.48;100.00;101806.78;5227914;28;20337;-77
2023/09/15 03:16:13;;;;;;;;;;;;;;;14.47;100.00;101805.09;5226313;28;20023;-77
2023/09/15 03:18:46;;;;;;;;;;;;;;;14.47;100.00;101805.09;5227036;28;19921;-77
2023/09/15 03:21:17;;;;;;;;;;;;;;;14.46;100.00;101808.69;5225366;28;19956;-77
2023/09/15 03:23:48;;;;;;;;;;;;;;;14.44;100.00;101803.56;5225162;28;20025;-77
2023/09/15 03:26:20;;;;;;;;;;;;;;;14.43;100.00;101795.78;5228281;28;19991;-77
2023/09/15 03:28:51;;;;;;;;;;;;;;;14.40;100.00;101796.06;5226796;28;20247;-77
2023/09/15 03:31:22;;;;;;;;;;;;;;;14.38;100.00;101793.53;5225075;28;19956;-77
2023/09/15 03:33:54;;;;;;;;;;;;;;;14.34;100.00;101785.06;5227263;28;20063;-77
2023/09/15 03:36:29;;;;;;;;;;;;;;;14.33;100.00;101791.31;5227218;28;19924;-77
2023/09/15 03:39:00;;;;;;;;;;;;;;;14.30;100.00;101788.91;5229866;28;19949;-77
2023/09/15 03:41:31;;;;;;;;;;;;;;;14.29;100.00;101795.16;5229695;28;19949;-77
2023/09/15 03:44:03;;;;;;;;;;;;;;;14.28;100.00;101788.22;5229920;28;19917;-77
2023/09/15 03:46:34;;;;;;;;;;;;;;;14.19;100.00;101778.47;5229192;28;20333;-77
2023/09/15 03:49:06;;;;;;;;;;;;;;;14.24;100.00;101783.34;5230058;28;19940;-77
2023/09/15 03:51:37;;;;;;;;;;;;;;;14.23;100.00;101789.56;5232274;28;19912;-77
2023/09/15 03:54:08;;;;;;;;;;;;;;;14.19;100.00;101785.53;5229537;28;20379;-77
2023/09/15 03:56:40;;;;;;;;;;;;;;;14.17;100.00;101788.31;5231415;28;19924;-77
2023/09/15 03:59:11;;;;;;;;;;;;;;;14.18;100.00;101786.50;5230514;28;20024;-77
2023/09/15 04:01:42;;;;;;;;;;;;;;;14.18;100.00;101784.69;5232306;28;19916;-77
2023/09/15 04:04:13;;;;;;;;;;;;;;;14.19;100.00;101778.47;5229752;28;19923;-77
2023/09/15 04:06:44;;;;;;;;;;;;;;;14.19;100.00;101783.72;5226480;28;19929;-77
2023/09/15 04:09:16;;;;;;;;;;;;;;;14.18;100.00;101782.06;5227719;28;20345;-77
2023/09/15 04:11:47;;;;;;;;;;;;;;;14.18;100.00;101776.78;5231513;28;19939;-77
2023/09/15 04:14:18;;;;;;;;;;;;;;;14.17;100.00;101776.91;5233300;28;19921;-77
2023/09/15 04:16:49;;;;;;;;;;;;;;;14.15;100.00;101779.69;5229544;28;19917;-77
2023/09/15 04:19:20;;;;;;;;;;;;;;;14.14;100.00;101772.75;5230707;28;19928;-77
2023/09/15 04:21:51;;;;;;;;;;;;;;;14.11;100.00;101773.84;5229034;28;19928;-77
2023/09/15 04:24:24;;;;;;;;;;;;;;;14.10;100.00;101773.97;5232005;28;19920;-77
2023/09/15 04:26:56;;;;;;;;;;;;;;;14.09;100.00;101767.88;5228756;28;19920;-77
2023/09/15 04:29:27;;;;;;;;;;;;;;;14.09;100.00;101770.53;5229616;28;19917;-77
2023/09/15 04:31:58;;;;;;;;;;;;;;;14.08;100.00;101768.00;5230323;28;20385;-77
2023/09/15 04:34:30;;;;;;;;;;;;;;;14.05;100.00;101768.25;5229867;28;20006;-76
2023/09/15 04:37:01;;;;;;;;;;;;;;;14.04;100.00;101766.59;5227941;28;20294;-77
2023/09/15 04:39:33;;;;;;;;;;;;;;;14.01;100.00;101769.47;5228848;28;20120;-77
2023/09/15 04:42:04;;;;;;;;;;;;;;;14.00;100.00;101766.00;5224491;28;19917;-77
2023/09/15 04:44:36;;;;;;;;;;;;;;;14.00;100.00;101765.19;5231037;28;19996;-77
2023/09/15 04:47:07;;;;;;;;;;;;;;;14.00;100.00;101767.81;5230589;28;19921;-77
2023/09/15 04:49:38;;;;;;;;;;;;;;;13.99;100.00;101774.06;5231559;28;19921;-77
2023/09/15 04:52:09;;;;;;;;;;;;;;;13.97;100.00;101768.06;5226219;28;19975;-77
2023/09/15 04:54:41;;;;;;;;;;;;;;;13.98;100.00;101775.88;5227510;28;20285;-77
2023/09/15 04:57:12;;;;;;;;;;;;;;;13.97;100.00;101774.16;5231055;28;19995;-77
2023/09/15 04:59:46;;;;;;;;;;;;;;;13.98;100.00;101783.75;5226965;28;19923;-77
2023/09/15 05:02:17;;;;;;;;;;;;;;;13.98;100.00;101785.53;5225030;28;19917;-77
2023/09/15 05:04:49;;;;;;;;;;;;;;;13.94;100.00;101784.13;5227164;28;19968;-77
2023/09/15 05:07:20;;;;;;;;;;;;;;;13.93;100.00;101783.28;5223812;28;19917;-77
2023/09/15 05:09:52;;;;;;;;;;;;;;;13.93;100.00;101793.84;5225943;28;19967;-76
2023/09/15 05:12:23;;;;;;;;;;;;;;;13.90;100.00;101791.44;5227291;28;19955;-77
2023/09/15 05:14:54;;;;;;;;;;;;;;;13.87;100.00;101789.94;5229100;28;19920;-77
2023/09/15 05:17:26;;;;;;;;;;;;;;;13.84;100.00;101786.72;5224685;28;19921;-77
2023/09/15 05:19:57;;;;;;;;;;;;;;;13.83;100.00;101787.69;5208360;28;20517;-77
2023/09/15 05:22:28;;;;;;;;;;;;;;;13.82;100.00;101792.09;5231126;28;19959;-77
2023/09/15 05:25:00;;;;;;;;;;;;;;;13.81;100.00;101784.34;5229203;28;19936;-77
2023/09/15 05:27:31;;;;;;;;;;;;;;;13.80;100.00;101794.03;5226527;28;19982;-77
2023/09/15 05:30:03;;;;;;;;;;;;;;;13.82;100.00;101793.91;5230410;28;19959;-77
2023/09/15 05:32:34;;;;;;;;;;;;;;;13.80;100.00;101791.41;5229274;28;19921;-77
2023/09/15 05:35:08;;;;;;;;;;;;;;;13.79;100.00;101789.75;5228048;28;20279;-77
2023/09/15 05:37:39;;;;;;;;;;;;;;;13.78;100.00;101787.22;5228718;28;19921;-77
2023/09/15 05:40:10;;;;;;;;;;;;;;;13.79;100.00;101791.53;5228053;28;19996;-77
2023/09/15 05:42:41;;;;;;;;;;;;;;;13.79;100.00;101792.38;5210771;28;20262;-77
2023/09/15 05:45:12;;;;;;;;;;;;;;;13.79;100.00;101781.84;5225560;28;19921;-77
2023/09/15 05:47:44;;;;;;;;;;;;;;;13.80;100.00;101783.50;5222810;28;19923;-77
2023/09/15 05:50:15;;;;;;;;;;;;;;;13.81;100.00;101792.22;5222718;28;19939;-77
2023/09/15 05:52:46;;;;;;;;;;;;;;;13.82;100.00;101793.91;5224239;28;20051;-77
2023/09/15 05:55:17;;;;;;;;;;;;;;;13.86;100.00;101792.66;5207897;28;19979;-77
2023/09/15 05:57:48;;;;;;;;;;;;;;;13.90;100.00;101793.25;5220209;28;19975;-77
2023/09/15 06:00:20;;;;;;;;;;;;;;;13.91;100.00;101792.31;5224796;28;20137;-77
2023/09/15 06:02:51;;;;;;;;;;;;;;;13.93;100.00;101795.63;5223400;28;19952;-77
2023/09/15 06:05:25;;;;;;;;;;;;;;;13.96;100.00;101790.13;5210986;28;20035;-77
2023/09/15 06:07:56;;;;;;;;;;;;;;;14.00;100.00;101799.44;5226172;28;19920;-77
2023/09/15 06:10:27;;;;;;;;;;;;;;;14.02;100.00;101795.72;5222882;28;19921;-77
2023/09/15 06:12:58;;;;;;;;;;;;;;;14.07;100.00;101795.31;5228695;28;19925;-78
2023/09/15 06:15:29;;;;;;;;;;;;;;;14.15;100.00;101794.66;5210536;28;19977;-77
2023/09/15 06:18:01;;;;;;;;;;;;;;;14.20;100.00;101792.47;5224771;28;19921;-77
2023/09/15 06:20:33;;;;;;;;;;;;;;;14.22;100.00;101788.75;5220501;28;20322;-77
2023/09/15 06:23:04;;;;;;;;;;;;;;;14.28;100.00;101796.16;5228512;28;19913;-77
2023/09/15 06:25:35;;;;;;;;;;;;;;;14.35;100.00;101799.06;5225323;28;20373;-77
2023/09/15 06:28:07;;;;;;;;;;;;;;;14.40;100.00;101791.63;5224139;28;19920;-77
2023/09/15 06:30:38;;;;;;;;;;;;;;;14.46;100.00;101792.88;5225795;28;20349;-77
2023/09/15 06:33:10;;;;;;;;;;;;;;;14.51;100.00;101788.94;5213432;28;19931;-77
2023/09/15 06:35:42;;;;;;;;;;;;;;;14.58;100.00;101786.56;5223207;28;19917;-77
2023/09/15 06:38:14;;;;;;;;;;;;;;;14.67;100.00;101782.31;5226490;28;19913;-77
2023/09/15 06:40:46;;;;;;;;;;;;;;;14.71;100.00;101781.06;5226908;28;19970;-77
2023/09/15 06:43:17;;;;;;;;;;;;;;;14.81;100.00;101782.78;5224846;28;19924;-78
2023/09/15 06:45:49;;;;;;;;;;;;;;;14.91;100.00;101782.78;5209111;28;20286;-77
2023/09/15 06:48:20;;;;;;;;;;;;;;;14.99;100.00;101776.84;5228165;28;19978;-77
2023/09/15 06:50:51;;;;;;;;;;;;;;;15.04;100.00;101769.38;5224516;28;19924;-77
2023/09/15 06:53:22;;;;;;;;;;;;;;;15.14;100.00;101769.34;5224418;28;19925;-77
2023/09/15 06:55:54;;;;;;;;;;;;;;;15.23;100.00;101779.09;5223575;28;20066;-77
2023/09/15 06:58:26;;;;;;;;;;;;;;;15.33;100.00;101769.38;5227085;28;19921;-77
2023/09/15 07:00:57;;;;;;;;;;;;;;;15.42;100.00;101778.25;5223042;28;19947;-78
2023/09/15 07:03:29;;;;;;;;;;;;;;;15.53;100.00;101771.06;5222123;28;20008;-77
2023/09/15 07:06:01;;;;;;;;;;;;;;;15.61;100.00;101773.00;5227354;28;20413;-77
2023/09/15 07:08:32;;;;;;;;;;;;;;;15.70;100.00;101776.63;5222994;28;20444;-78
2023/09/15 07:11:03;;;;;;;;;;;;;;;15.79;100.00;101776.59;5222863;28;19916;-77
2023/09/15 07:13:35;;;;;;;;;;;;;;;15.89;100.00;101775.75;5226340;28;19979;-77
2023/09/15 07:16:07;;;;;;;;;;;;;;;15.98;100.00;101764.31;5229019;28;19917;-77
2023/09/15 07:18:38;;;;;;;;;;;;;;;16.05;100.00;101760.97;5227342;28;19925;-78
2023/09/15 07:21:09;;;;;;;;;;;;;;;16.13;100.00;101762.06;5225879;28;20386;-78
2023/09/15 07:23:40;;;;;;;;;;;;;;;16.23;100.00;101768.16;5228459;28;20398;-79
2023/09/15 07:26:11;;;;;;;;;;;;;;;16.32;100.00;101764.63;5227970;28;19912;-79
2023/09/15 07:28:42;;;;;;;;;;;;;;;16.42;100.00;101761.97;5224409;28;19917;-78
2023/09/15 07:31:17;;;;;;;;;;;;;;;16.50;100.00;101754.94;5213418;28;19924;-78
2023/09/15 07:33:48;;;;;;;;;;;;;;;16.60;100.00;101754.91;5227604;28;19927;-78
2023/09/15 07:36:19;;;;;;;;;;;;;;;16.69;100.00;101751.38;5231225;28;19912;-77
2023/09/15 07:38:50;;;;;;;;;;;;;;;16.78;100.00;101754.97;5227060;28;20333;-78
2023/09/15 07:41:22;;;;;;;;;;;;;;;16.86;100.00;101756.88;5228830;28;20007;-78
2023/09/15 07:43:56;;;;;;;;;;;;;;;17.00;100.00;101751.06;5211770;28;19917;-76
2023/09/15 07:46:28;;;;;;;;;;;;;;;17.10;100.00;101751.03;5229022;28;20354;-78
2023/09/15 07:48:59;;;;;;;;;;;;;;;17.19;100.00;101756.22;5229675;28;19921;-77
2023/09/15 07:51:30;;;;;;;;;;;;;;;17.29;100.00;101756.16;5230369;28;19913;-78
2023/09/15 07:54:01;;;;;;;;;;;;;;;17.37;100.00;101750.94;5224505;28;19921;-78
2023/09/15 07:56:33;;;;;;;;;;;;;;;17.46;100.00;101752.69;5227074;28;19924;-78
2023/09/15 07:59:06;;;;;;;;;;;;;;;17.56;100.00;101747.28;5229853;28;20397;-78
2023/09/15 08:01:38;;;;;;;;;;;;;;;17.69;100.00;101747.72;5225274;28;19927;-77
2023/09/15 08:04:09;;;;;;;;;;;;;;;17.82;100.00;101747.34;5228497;28;19913;-78
2023/09/15 08:06:40;;;;;;;;;;;;;;;17.91;100.00;101751.69;5229018;28;19917;-78
2023/09/15 08:09:11;;;;;;;;;;;;;;;18.01;100.00;101742.81;5220017;28;20313;-78
2023/09/15 08:11:42;;;;;;;;;;;;;;;18.09;100.00;101737.56;5228897;28;19917;-78
2023/09/15 08:14:14;;;;;;;;;;;;;;;18.18;100.00;101736.59;5227360;28;19917;-78
2023/09/15 08:16:45;;;;;;;;;;;;;;;18.30;100.00;101737.19;5225727;28;19909;-79
2023/09/15 08:19:16;;;;;;;;;;;;;;;18.41;100.00;101740.38;5230283;28;19928;-79
2023/09/15 08:21:48;;;;;;;;;;;;;;;18.50;100.00;101738.59;5230311;28;19960;-78
2023/09/15 08:24:20;;;;;;;;;;;;;;;18.59;100.00;101737.59;5231528;28;20404;-78
2023/09/15 08:26:51;;;;;;;;;;;;;;;18.68;100.00;101734.00;5215906;28;20377;-78
2023/09/15 08:29:22;;;;;;;;;;;;;;;18.83;100.00;101738.72;5240788;28;19999;-78
2023/09/15 08:31:53;;;;;;;;;;;;;;;18.97;100.00;101732.75;5228638;28;19917;-78
2023/09/15 08:34:24;;;;;;;;;;;;;;;19.09;100.00;101742.09;5230353;28;20263;-78
2023/09/15 08:36:56;;;;;;;;;;;;;;;19.19;100.00;101749.88;5231007;28;19918;-78
2023/09/15 08:39:27;;;;;;;;;;;;;;;19.28;100.00;101738.28;5228571;28;20387;-78
2023/09/15 08:42:03;;;;;;;;;;;;;;;19.42;100.00;101734.13;5232268;28;20342;-78
2023/09/15 08:44:34;;;;;;;;;;;;;;;19.56;100.00;101738.78;5212822;28;19913;-78
2023/09/15 08:47:06;;;;;;;;;;;;;;;19.68;100.00;101739.28;5224213;28;19928;-78
2023/09/15 08:49:38;;;;;;;;;;;;;;;19.76;100.00;101731.28;5224870;28;20372;-78
2023/09/15 08:52:10;;;;;;;;;;;;;;;19.82;100.00;101727.16;5224434;28;19971;-78
2023/09/15 08:54:41;;;;;;;;;;;;;;;19.95;100.00;101729.28;5229283;28;19957;-78
2023/09/15 08:57:13;;;;;;;;;;;;;;;20.10;100.00;101724.91;5229952;28;19913;-78
2023/09/15 08:59:45;;;;;;;;;;;;;;;20.22;100.00;101722.69;5228174;28;20346;-78
2023/09/15 09:02:16;;;;;;;;;;;;;;;20.32;100.00;101724.16;5225454;28;19917;-74
2023/09/15 09:04:48;;;;;;;;;;;;;;;20.41;100.00;101725.78;5222702;28;19944;-74
2023/09/15 09:07:21;;;;;;;;;;;;;;;20.51;98.74;101728.25;5223236;28;19921;-74
2023/09/15 09:09:53;;;;;;;;;;;;;;;20.62;98.40;101724.38;5226913;28;20278;-74
2023/09/15 09:12:24;;;;;;;;;;;;;;;20.74;99.36;101722.97;5226663;28;19922;-74
2023/09/15 09:14:56;;;;;;;;;;;;;;;20.82;98.48;101720.25;5226733;28;20408;-74
2023/09/15 09:17:28;;;;;;;;;;;;;;;20.90;90.88;101730.03;5224462;28;19917;-75
2023/09/15 09:19:59;;;;;;;;;;;;;;;21.04;95.94;101718.63;5225184;28;20290;-74
2023/09/15 09:22:32;;;;;;;;;;;;;;;21.18;94.48;101722.34;5228377;28;20024;-74
2023/09/15 09:25:03;;;;;;;;;;;;;;;21.32;93.84;101720.72;5226261;28;20546;-74
2023/09/15 09:27:34;;;;;;;;;;;;;;;21.43;90.89;101717.66;5226053;28;19975;-74
2023/09/15 09:30:06;;;;;;;;;;;;;;;21.54;90.31;101714.56;5225731;28;19913;-74
2023/09/15 09:32:37;;;;;;;;;;;;;;;21.69;91.47;101711.94;5209455;28;19925;-74
2023/09/15 09:35:09;;;;;;;;;;;;;;;21.78;89.93;101710.00;5224344;28;19920;-74
2023/09/15 09:37:40;;;;;;;;;;;;;;;21.85;87.54;101718.94;5225969;28;20338;-72
2023/09/15 09:40:12;;;;;;;;;;;;;;;21.97;88.08;101711.28;5224565;28;19967;-74
2023/09/15 09:42:43;;;;;;;;;;;;;;;22.04;86.23;101704.22;5222379;28;20112;-73
2023/09/15 09:45:15;;;;;;;;;;;;;;;22.11;88.45;101708.63;5221239;28;19980;-73
2023/09/15 09:47:48;;;;;;;;;;;;;;;22.23;85.13;101703.66;5221316;28;20387;-73
2023/09/15 09:50:20;;;;;;;;;;;;;;;22.30;86.55;101701.09;5221916;28;19971;-73
2023/09/15 09:52:51;;;;;;;;;;;;;;;22.39;85.47;101694.66;5220989;28;19920;-74
2023/09/15 09:55:24;;;;;;;;;;;;;;;22.49;80.37;101699.66;5222554;28;19979;-74
2023/09/15 09:58:02;;;;;;;;;;;;;;;22.53;79.42;101701.78;5220521;28;19962;-73
2023/09/15 10:00:33;;;;;;;;;;;;;;;22.58;81.60;101702.06;5213043;28;20004;-73
2023/09/15 10:03:05;;;;;;;;;;;;;;;22.58;75.38;101685.22;5218946;28;20290;-73
2023/09/15 10:05:37;;;;;;;;;;;;;;;22.69;81.17;101692.72;5221314;28;19998;-73
2023/09/15 10:08:09;;;;;;;;;;;;;;;22.78;79.57;101693.41;5220967;28;19924;-73
2023/09/15 10:10:44;;;;;;;;;;;;;;;22.86;79.11;101687.13;5216887;28;19975;-73
2023/09/15 10:13:16;;;;;;;;;;;;;;;22.93;80.45;101680.84;5202325;28;19928;-72
2023/09/15 10:15:48;;;;;;;;;;;;;;;23.05;78.12;101682.00;5219982;28;19917;-73
2023/09/15 10:18:20;;;;;;;;;;;;;;;23.09;73.52;101677.09;5219195;28;19975;-72
2023/09/15 10:20:52;;;;;;;;;;;;;;;23.18;77.25;101675.09;5220442;28;19916;-73
2023/09/15 10:23:26;;;;;;;;;;;;;;;23.28;75.92;101668.41;5220487;28;19987;-74
2023/09/15 10:25:57;;;;;;;;;;;;;;;23.37;73.25;101662.91;5219332;28;19916;-73
2023/09/15 10:28:29;;;;;;;;;;;;;;;23.45;75.64;101663.59;5219453;28;19967;-73
2023/09/15 10:31:00;;;;;;;;;;;;;;;23.52;73.48;101671.66;5197869;28;20157;-73
2023/09/15 10:33:32;;;;;;;;;;;;;;;23.64;73.40;101662.09;5222761;28;20060;-73
2023/09/15 10:36:04;;;;;;;;;;;;;;;23.76;74.38;101659.72;5220577;28;19917;-71
2023/09/15 10:38:35;;;;;;;;;;;;;;;23.86;70.92;101659.34;5214109;28;19980;-73
2023/09/15 10:41:09;;;;;;;;;;;;;;;23.96;72.00;101655.28;5219335;28;19978;-72
2023/09/15 10:43:47;;;;;;;;;;;;;;;24.08;71.16;101654.72;5218217;28;20975;-73
2023/09/15 10:46:18;;;;;;;;;;;;;;;24.16;69.73;101659.88;5219304;28;20554;-73
2023/09/15 10:48:51;;;;;;;;;;;;;;;24.21;71.47;101652.91;5217503;28;19913;-74
2023/09/15 10:51:24;;;;;;;;;;;;;;;24.27;71.04;101637.88;5215650;28;19981;-73
2023/09/15 10:53:59;;;;;;;;;;;;;;;24.32;72.48;101643.47;5216159;28;20460;-72
2023/09/15 10:56:32;;;;;;;;;;;;;;;24.38;78.48;101639.97;5218981;28;19909;-74
2023/09/15 10:59:03;;;;;;;;;;;;;;;24.47;68.57;101638.81;5216131;28;20307;-73
2023/09/15 11:01:35;;;;;;;;;;;;;;;24.63;66.17;101639.47;5215337;28;20004;-74
2023/09/15 11:04:07;;;;;;;;;;;;;;;24.64;68.88;101636.56;5214225;28;19913;-74
2023/09/15 11:06:38;;;;;;;;;;;;;;;24.67;67.18;101630.81;5214921;28;19923;-74
2023/09/15 11:09:11;;;;;;;;;;;;;;;24.77;66.82;101633.06;5215738;28;19921;-74
2023/09/15 11:11:43;;;;;;;;;;;;;;;24.79;65.76;101622.16;5216197;28;19916;-72
2023/09/15 11:14:15;;;;;;;;;;;;;;;24.92;65.38;101627.50;5216862;28;19924;-73
2023/09/15 11:16:50;;;;;;;;;;;;;;;24.96;63.35;101621.56;5220220;28;20314;-73
2023/09/15 11:19:23;;;;;;;;;;;;;;;25.09;64.10;101622.56;5212354;28;20395;-74
2023/09/15 11:21:54;;;;;;;;;;;;;;;25.14;61.41;101622.78;5217776;28;19996;-73
2023/09/15 11:24:25;;;;;;;;;;;;;;;25.27;63.14;101617.44;5219585;28;19917;-73
2023/09/15 11:26:58;;;;;;;;;;;;;;;25.43;58.57;101616.97;5219787;28;19920;-73
2023/09/15 11:29:30;;;;;;;;;;;;;;;25.64;60.87;101610.50;5213832;28;19922;-73
2023/09/15 11:32:01;;;;;;;;;;;;;;;25.67;58.01;101611.97;5218597;28;19921;-73
2023/09/15 11:34:32;;;;;;;;;;;;;;;25.77;58.05;101616.91;5214795;28;19971;-73
2023/09/15 11:37:03;;;;;;;;;;;;;;;25.79;54.86;101609.47;5218842;28;19957;-73
2023/09/15 11:39:35;;;;;;;;;;;;;;;25.80;62.09;101611.09;5216960;28;20052;-73
2023/09/15 11:42:10;;;;;;;;;;;;;;;25.71;59.79;101613.19;5220344;28;19982;-73
2023/09/15 11:44:43;;;;;;;;;;;;;;;25.73;57.39;101611.13;5215008;28;20036;-72
2023/09/15 11:47:15;;;;;;;;;;;;;;;25.84;57.34;101607.81;5220670;28;20341;-73
2023/09/15 11:49:47;;;;;;;;;;;;;;;25.88;54.30;101602.84;5219479;28;19963;-73
2023/09/15 11:52:18;;;;;;;;;;;;;;;25.95;60.55;101596.41;5201560;28;20330;-73
2023/09/15 11:54:50;;;;;;;;;;;;;;;25.86;57.09;101603.03;5218587;28;19932;-73
2023/09/15 11:57:22;;;;;;;;;;;;;;;25.86;58.90;101596.84;5217085;28;19917;-72
2023/09/15 11:59:53;;;;;;;;;;;;;;;25.93;54.61;101601.16;5221249;28;19917;-73
2023/09/15 12:02:25;;;;;;;;;;;;;;;26.11;50.28;101597.78;5220614;28;19917;-74
2023/09/15 12:04:57;;;;;;;;;;;;;;;26.24;49.93;101586.13;5221986;28;20353;-73
2023/09/15 12:07:28;;;;;;;;;;;;;;;26.39;52.40;101585.81;5223443;28;20025;-73
2023/09/15 12:10:00;;;;;;;;;;;;;;;26.48;48.89;101591.78;5223274;28;20410;-73
2023/09/15 12:12:31;;;;;;;;;;;;;;;26.56;49.12;101584.28;5218551;28;20011;-73
2023/09/15 12:15:05;;;;;;;;;;;;;;;26.64;48.29;101584.03;5218888;28;19924;-73
2023/09/15 12:17:40;;;;;;;;;;;;;;;26.74;48.14;101582.69;5218006;28;19924;-73
2023/09/15 12:20:12;;;;;;;;;;;;;;;26.79;56.63;101577.50;5224039;28;19940;-73
2023/09/15 12:22:44;;;;;;;;;;;;;;;26.80;60.61;101576.44;5225450;28;19917;-73
2023/09/15 12:25:15;;;;;;;;;;;;;;;26.87;48.93;101579.91;5221201;28;19923;-72
2023/09/15 12:27:46;;;;;;;;;;;;;;;26.95;48.89;101576.13;5222047;28;20438;-73
2023/09/15 12:30:19;;;;;;;;;;;;;;;27.05;47.35;101577.25;5223910;28;19927;-73
2023/09/15 12:32:53;;;;;;;;;;;;;;;27.14;46.86;101567.88;5222931;28;19925;-73
2023/09/15 12:35:24;;;;;;;;;;;;;;;27.16;45.53;101568.50;5221064;28;20457;-73
2023/09/15 12:37:56;;;;;;;;;;;;;;;27.30;47.89;101562.94;5219185;28;19925;-73
2023/09/15 12:40:29;;;;;;;;;;;;;;;27.34;44.61;101567.66;5217841;28;19917;-72
2023/09/15 12:43:00;;;;;;;;;;;;;;;27.38;46.73;101566.16;5222058;28;20271;-73
2023/09/15 12:45:32;;;;;;;;;;;;;;;27.48;45.89;101554.88;5224133;28;19923;-73
2023/09/15 12:48:03;;;;;;;;;;;;;;;27.53;44.19;101556.88;5220826;28;19917;-73
2023/09/15 12:50:34;;;;;;;;;;;;;;;27.55;43.47;101557.50;5219684;28;19963;-73
2023/09/15 12:53:05;;;;;;;;;;;;;;;27.56;44.08;101543.00;5223534;28;19975;-73
2023/09/15 12:55:36;;;;;;;;;;;;;;;27.62;41.83;101551.00;5219471;28;19936;-73